sensor_id;sensor_type;location;lat;lon;timestamp;P1;durP1;ratioP1;P2;durP2;ratioP2
20287;SDS011;10303;51.960;8.372;2022-07-29T00:00:55;1.90;;;0.60;;
20287;SDS011;10303;51.960;8.372;2022-07-29T00:03:22;0.60;;;0.60;;
20287;SDS011;10303;51.960;8.372;2022-07-29T00:05:48;0.50;;;0.50;;
20287;SDS011;10303;51.960;8.372;2022-07-29T00:08:14;0.80;;;0.53;;
20287;SDS011;10303;51.960;8.372;2022-07-29T00:10:41;4.33;;;0.50;;
20287;SDS011;10303;51.960;8.372;2022-07-29T00:13:08;0.50;;;0.50;;
20287;SDS011;10303;51.960;8.372;2022-07-29T00:15:34;0.60;;;0.53;;
20287;SDS011;10303;51.960;8.372;2022-07-29T00:18:00;0.57;;;0.40;;
20287;SDS011;10303;51.960;8.372;2022-07-29T00:20:26;0.67;;;0.67;;
20287;SDS011;10303;51.960;8.372;2022-07-29T00:22:52;1.33;;;0.80;;
20287;SDS011;10303;51.960;8.372;2022-07-29T00:25:18;0.70;;;0.50;;
20287;SDS011;10303;51.960;8.372;2022-07-29T00:27:44;0.60;;;0.60;;
20287;SDS011;10303;51.960;8.372;2022-07-29T00:30:13;0.70;;;0.57;;
20287;SDS011;10303;51.960;8.372;2022-07-29T00:32:39;0.60;;;0.60;;
20287;SDS011;10303;51.960;8.372;2022-07-29T00:35:06;1.77;;;0.50;;
20287;SDS011;10303;51.960;8.372;2022-07-29T00:38:14;0.43;;;0.40;;
20287;SDS011;10303;51.960;8.372;2022-07-29T00:40:43;0.90;;;0.70;;
20287;SDS011;10303;51.960;8.372;2022-07-29T00:43:10;0.60;;;0.60;;
20287;SDS011;10303;51.960;8.372;2022-07-29T00:45:39;0.70;;;0.40;;
20287;SDS011;10303;51.960;8.372;2022-07-29T00:48:06;0.60;;;0.50;;
20287;SDS011;10303;51.960;8.372;2022-07-29T00:50:34;0.60;;;0.60;;
20287;SDS011;10303;51.960;8.372;2022-07-29T00:53:01;1.17;;;0.60;;
20287;SDS011;10303;51.960;8.372;2022-07-29T00:55:30;0.60;;;0.60;;
20287;SDS011;10303;51.960;8.372;2022-07-29T00:57:56;2.50;;;0.60;;
20287;SDS011;10303;51.960;8.372;2022-07-29T01:00:25;0.50;;;0.50;;
20287;SDS011;10303;51.960;8.372;2022-07-29T01:02:53;0.77;;;0.73;;
20287;SDS011;10303;51.960;8.372;2022-07-29T01:05:20;1.83;;;0.67;;
20287;SDS011;10303;51.960;8.372;2022-07-29T01:07:49;1.50;;;0.63;;
20287;SDS011;10303;51.960;8.372;2022-07-29T01:10:19;0.73;;;0.73;;
20287;SDS011;10303;51.960;8.372;2022-07-29T01:12:49;0.53;;;0.53;;
20287;SDS011;10303;51.960;8.372;2022-07-29T01:15:17;1.00;;;0.70;;
20287;SDS011;10303;51.960;8.372;2022-07-29T01:23:48;0.50;;;0.50;;
20287;SDS011;10303;51.960;8.372;2022-07-29T01:26:52;1.57;;;0.50;;
20287;SDS011;10303;51.960;8.372;2022-07-29T01:29:41;0.50;;;0.50;;
20287;SDS011;10303;51.960;8.372;2022-07-29T01:32:19;1.93;;;0.50;;
20287;SDS011;10303;51.960;8.372;2022-07-29T01:37:45;1.70;;;0.60;;
20287;SDS011;10303;51.960;8.372;2022-07-29T01:40:43;0.70;;;0.70;;
20287;SDS011;10303;51.960;8.372;2022-07-29T01:43:17;1.40;;;0.77;;
20287;SDS011;10303;51.960;8.372;2022-07-29T01:45:51;1.50;;;0.70;;
20287;SDS011;10303;51.960;8.372;2022-07-29T01:48:34;0.70;;;0.60;;
20287;SDS011;10303;51.960;8.372;2022-07-29T01:51:14;0.73;;;0.60;;
20287;SDS011;10303;51.960;8.372;2022-07-29T01:53:58;0.60;;;0.60;;
20287;SDS011;10303;51.960;8.372;2022-07-29T01:56:40;0.67;;;0.50;;
20287;SDS011;10303;51.960;8.372;2022-07-29T01:59:10;0.50;;;0.50;;
20287;SDS011;10303;51.960;8.372;2022-07-29T02:01:37;2.03;;;0.80;;
20287;SDS011;10303;51.960;8.372;2022-07-29T02:04:08;0.50;;;0.50;;
20287;SDS011;10303;51.960;8.372;2022-07-29T02:06:37;0.63;;;0.50;;
20287;SDS011;10303;51.960;8.372;2022-07-29T02:09:07;0.60;;;0.60;;
20287;SDS011;10303;51.960;8.372;2022-07-29T02:11:36;1.67;;;0.97;;
20287;SDS011;10303;51.960;8.372;2022-07-29T02:14:05;0.70;;;0.70;;
20287;SDS011;10303;51.960;8.372;2022-07-29T02:16:33;0.57;;;0.50;;
20287;SDS011;10303;51.960;8.372;2022-07-29T02:19:03;0.50;;;0.50;;
20287;SDS011;10303;51.960;8.372;2022-07-29T02:21:30;2.57;;;0.50;;
20287;SDS011;10303;51.960;8.372;2022-07-29T02:23:59;0.60;;;0.60;;
20287;SDS011;10303;51.960;8.372;2022-07-29T02:26:27;1.00;;;0.60;;
20287;SDS011;10303;51.960;8.372;2022-07-29T02:28:56;0.57;;;0.57;;
20287;SDS011;10303;51.960;8.372;2022-07-29T02:31:26;0.57;;;0.50;;
20287;SDS011;10303;51.960;8.372;2022-07-29T02:33:57;0.57;;;0.50;;
20287;SDS011;10303;51.960;8.372;2022-07-29T02:36:25;0.40;;;0.40;;
20287;SDS011;10303;51.960;8.372;2022-07-29T02:38:53;0.57;;;0.57;;
20287;SDS011;10303;51.960;8.372;2022-07-29T02:44:11;1.67;;;0.60;;
20287;SDS011;10303;51.960;8.372;2022-07-29T02:46:50;1.53;;;0.90;;
20287;SDS011;10303;51.960;8.372;2022-07-29T02:52:20;0.50;;;0.50;;
20287;SDS011;10303;51.960;8.372;2022-07-29T02:55:11;0.50;;;0.50;;
20287;SDS011;10303;51.960;8.372;2022-07-29T02:58:02;0.70;;;0.70;;
20287;SDS011;10303;51.960;8.372;2022-07-29T03:00:38;0.60;;;0.60;;
20287;SDS011;10303;51.960;8.372;2022-07-29T03:03:12;0.57;;;0.50;;
20287;SDS011;10303;51.960;8.372;2022-07-29T03:05:41;0.63;;;0.60;;
20287;SDS011;10303;51.960;8.372;2022-07-29T03:08:09;0.50;;;0.50;;
20287;SDS011;10303;51.960;8.372;2022-07-29T03:10:37;0.70;;;0.70;;
20287;SDS011;10303;51.960;8.372;2022-07-29T03:13:10;1.03;;;0.77;;
20287;SDS011;10303;51.960;8.372;2022-07-29T03:15:38;0.70;;;0.50;;
20287;SDS011;10303;51.960;8.372;2022-07-29T03:18:05;0.57;;;0.57;;
20287;SDS011;10303;51.960;8.372;2022-07-29T03:20:33;0.50;;;0.50;;
20287;SDS011;10303;51.960;8.372;2022-07-29T03:22:59;0.50;;;0.50;;
20287;SDS011;10303;51.960;8.372;2022-07-29T03:25:25;2.00;;;0.50;;
20287;SDS011;10303;51.960;8.372;2022-07-29T03:27:52;0.60;;;0.60;;
20287;SDS011;10303;51.960;8.372;2022-07-29T03:30:18;1.07;;;0.60;;
20287;SDS011;10303;51.960;8.372;2022-07-29T03:32:44;1.43;;;0.60;;
20287;SDS011;10303;51.960;8.372;2022-07-29T03:35:10;0.50;;;0.50;;
20287;SDS011;10303;51.960;8.372;2022-07-29T03:37:36;0.80;;;0.60;;
20287;SDS011;10303;51.960;8.372;2022-07-29T03:40:03;1.43;;;0.60;;
20287;SDS011;10303;51.960;8.372;2022-07-29T03:42:34;2.00;;;0.70;;
20287;SDS011;10303;51.960;8.372;2022-07-29T03:45:06;2.30;;;0.50;;
20287;SDS011;10303;51.960;8.372;2022-07-29T03:47:37;1.40;;;0.60;;
20287;SDS011;10303;51.960;8.372;2022-07-29T03:50:11;0.60;;;0.50;;
20287;SDS011;10303;51.960;8.372;2022-07-29T03:52:40;0.70;;;0.70;;
20287;SDS011;10303;51.960;8.372;2022-07-29T03:55:07;0.70;;;0.70;;
20287;SDS011;10303;51.960;8.372;2022-07-29T03:57:34;0.60;;;0.53;;
20287;SDS011;10303;51.960;8.372;2022-07-29T04:00:03;0.80;;;0.50;;
20287;SDS011;10303;51.960;8.372;2022-07-29T04:02:31;0.70;;;0.60;;
20287;SDS011;10303;51.960;8.372;2022-07-29T04:04:58;0.90;;;0.70;;
20287;SDS011;10303;51.960;8.372;2022-07-29T04:07:24;0.50;;;0.50;;
20287;SDS011;10303;51.960;8.372;2022-07-29T04:09:51;0.70;;;0.60;;
20287;SDS011;10303;51.960;8.372;2022-07-29T04:12:17;0.50;;;0.50;;
20287;SDS011;10303;51.960;8.372;2022-07-29T04:14:42;0.40;;;0.40;;
20287;SDS011;10303;51.960;8.372;2022-07-29T04:17:08;0.60;;;0.60;;
20287;SDS011;10303;51.960;8.372;2022-07-29T04:19:34;0.83;;;0.70;;
20287;SDS011;10303;51.960;8.372;2022-07-29T04:22:01;1.13;;;0.60;;
20287;SDS011;10303;51.960;8.372;2022-07-29T04:24:27;1.53;;;0.53;;
20287;SDS011;10303;51.960;8.372;2022-07-29T04:26:53;0.60;;;0.60;;
20287;SDS011;10303;51.960;8.372;2022-07-29T04:29:19;0.50;;;0.50;;
20287;SDS011;10303;51.960;8.372;2022-07-29T04:31:45;0.60;;;0.60;;
20287;SDS011;10303;51.960;8.372;2022-07-29T04:34:11;1.97;;;0.87;;
20287;SDS011;10303;51.960;8.372;2022-07-29T04:36:38;0.60;;;0.60;;
20287;SDS011;10303;51.960;8.372;2022-07-29T04:39:04;3.60;;;0.53;;
20287;SDS011;10303;51.960;8.372;2022-07-29T04:41:30;0.77;;;0.60;;
20287;SDS011;10303;51.960;8.372;2022-07-29T04:43:56;0.40;;;0.40;;
20287;SDS011;10303;51.960;8.372;2022-07-29T04:46:22;2.57;;;0.90;;
20287;SDS011;10303;51.960;8.372;2022-07-29T04:48:48;1.43;;;0.50;;
20287;SDS011;10303;51.960;8.372;2022-07-29T04:51:14;0.80;;;0.70;;
20287;SDS011;10303;51.960;8.372;2022-07-29T04:53:41;1.50;;;0.50;;
20287;SDS011;10303;51.960;8.372;2022-07-29T04:56:06;2.20;;;0.60;;
20287;SDS011;10303;51.960;8.372;2022-07-29T04:58:35;0.50;;;0.50;;
20287;SDS011;10303;51.960;8.372;2022-07-29T05:01:02;0.53;;;0.53;;
20287;SDS011;10303;51.960;8.372;2022-07-29T05:03:28;1.67;;;0.50;;
20287;SDS011;10303;51.960;8.372;2022-07-29T05:05:54;0.40;;;0.40;;
20287;SDS011;10303;51.960;8.372;2022-07-29T05:08:20;2.03;;;0.73;;
20287;SDS011;10303;51.960;8.372;2022-07-29T05:10:46;0.60;;;0.60;;
20287;SDS011;10303;51.960;8.372;2022-07-29T05:13:12;1.43;;;0.57;;
20287;SDS011;10303;51.960;8.372;2022-07-29T05:15:38;0.80;;;0.80;;
20287;SDS011;10303;51.960;8.372;2022-07-29T05:18:04;1.23;;;0.77;;
20287;SDS011;10303;51.960;8.372;2022-07-29T05:20:31;1.60;;;0.70;;
20287;SDS011;10303;51.960;8.372;2022-07-29T05:22:59;1.10;;;0.63;;
20287;SDS011;10303;51.960;8.372;2022-07-29T05:25:27;1.20;;;0.60;;
20287;SDS011;10303;51.960;8.372;2022-07-29T05:27:54;0.60;;;0.60;;
20287;SDS011;10303;51.960;8.372;2022-07-29T05:30:21;1.40;;;0.70;;
20287;SDS011;10303;51.960;8.372;2022-07-29T05:32:47;1.80;;;0.80;;
20287;SDS011;10303;51.960;8.372;2022-07-29T05:35:13;0.60;;;0.60;;
20287;SDS011;10303;51.960;8.372;2022-07-29T05:37:40;5.00;;;1.40;;
20287;SDS011;10303;51.960;8.372;2022-07-29T05:40:06;0.70;;;0.60;;
20287;SDS011;10303;51.960;8.372;2022-07-29T05:42:33;0.50;;;0.50;;
20287;SDS011;10303;51.960;8.372;2022-07-29T05:45:00;1.07;;;0.80;;
20287;SDS011;10303;51.960;8.372;2022-07-29T05:47:27;3.60;;;0.70;;
20287;SDS011;10303;51.960;8.372;2022-07-29T05:49:53;2.27;;;0.70;;
20287;SDS011;10303;51.960;8.372;2022-07-29T05:52:19;3.70;;;0.77;;
20287;SDS011;10303;51.960;8.372;2022-07-29T05:54:46;0.80;;;0.70;;
20287;SDS011;10303;51.960;8.372;2022-07-29T05:57:19;1.67;;;0.77;;
20287;SDS011;10303;51.960;8.372;2022-07-29T05:59:48;1.30;;;0.63;;
20287;SDS011;10303;51.960;8.372;2022-07-29T06:02:15;0.80;;;0.80;;
20287;SDS011;10303;51.960;8.372;2022-07-29T06:04:42;1.43;;;0.67;;
20287;SDS011;10303;51.960;8.372;2022-07-29T06:07:08;3.07;;;0.70;;
20287;SDS011;10303;51.960;8.372;2022-07-29T06:09:34;1.23;;;0.80;;
20287;SDS011;10303;51.960;8.372;2022-07-29T06:12:00;3.50;;;0.73;;
20287;SDS011;10303;51.960;8.372;2022-07-29T06:14:27;1.13;;;0.50;;
20287;SDS011;10303;51.960;8.372;2022-07-29T06:16:53;1.13;;;0.60;;
20287;SDS011;10303;51.960;8.372;2022-07-29T06:19:20;2.30;;;0.60;;
20287;SDS011;10303;51.960;8.372;2022-07-29T06:21:46;1.27;;;0.67;;
20287;SDS011;10303;51.960;8.372;2022-07-29T06:24:13;1.07;;;0.87;;
20287;SDS011;10303;51.960;8.372;2022-07-29T06:26:41;0.60;;;0.60;;
20287;SDS011;10303;51.960;8.372;2022-07-29T06:29:07;1.47;;;0.70;;
20287;SDS011;10303;51.960;8.372;2022-07-29T06:31:35;0.70;;;0.60;;
20287;SDS011;10303;51.960;8.372;2022-07-29T06:34:02;0.50;;;0.50;;
20287;SDS011;10303;51.960;8.372;2022-07-29T06:36:28;2.33;;;0.60;;
20287;SDS011;10303;51.960;8.372;2022-07-29T06:38:55;1.50;;;0.70;;
20287;SDS011;10303;51.960;8.372;2022-07-29T06:41:21;1.37;;;0.60;;
20287;SDS011;10303;51.960;8.372;2022-07-29T06:43:48;2.57;;;1.47;;
20287;SDS011;10303;51.960;8.372;2022-07-29T06:46:16;0.70;;;0.70;;
20287;SDS011;10303;51.960;8.372;2022-07-29T06:48:44;1.53;;;0.70;;
20287;SDS011;10303;51.960;8.372;2022-07-29T06:51:12;0.90;;;0.60;;
20287;SDS011;10303;51.960;8.372;2022-07-29T06:53:38;0.70;;;0.60;;
20287;SDS011;10303;51.960;8.372;2022-07-29T06:56:05;0.93;;;0.70;;
20287;SDS011;10303;51.960;8.372;2022-07-29T06:58:37;0.50;;;0.50;;
20287;SDS011;10303;51.960;8.372;2022-07-29T07:01:04;3.60;;;0.70;;
20287;SDS011;10303;51.960;8.372;2022-07-29T07:03:31;0.77;;;0.77;;
20287;SDS011;10303;51.960;8.372;2022-07-29T07:05:58;2.20;;;0.70;;
20287;SDS011;10303;51.960;8.372;2022-07-29T07:08:24;0.90;;;0.80;;
20287;SDS011;10303;51.960;8.372;2022-07-29T07:10:50;0.70;;;0.67;;
20287;SDS011;10303;51.960;8.372;2022-07-29T07:13:17;0.60;;;0.60;;
20287;SDS011;10303;51.960;8.372;2022-07-29T07:15:44;1.17;;;0.83;;
20287;SDS011;10303;51.960;8.372;2022-07-29T07:18:13;0.53;;;0.50;;
20287;SDS011;10303;51.960;8.372;2022-07-29T07:20:40;0.67;;;0.57;;
20287;SDS011;10303;51.960;8.372;2022-07-29T07:23:07;1.23;;;0.63;;
20287;SDS011;10303;51.960;8.372;2022-07-29T07:25:33;1.00;;;0.80;;
20287;SDS011;10303;51.960;8.372;2022-07-29T07:27:59;0.87;;;0.50;;
20287;SDS011;10303;51.960;8.372;2022-07-29T07:30:25;1.00;;;0.60;;
20287;SDS011;10303;51.960;8.372;2022-07-29T07:32:52;0.97;;;0.63;;
20287;SDS011;10303;51.960;8.372;2022-07-29T07:35:19;1.77;;;1.07;;
20287;SDS011;10303;51.960;8.372;2022-07-29T07:37:46;0.77;;;0.70;;
20287;SDS011;10303;51.960;8.372;2022-07-29T07:40:12;2.07;;;0.57;;
20287;SDS011;10303;51.960;8.372;2022-07-29T07:42:42;0.60;;;0.60;;
20287;SDS011;10303;51.960;8.372;2022-07-29T07:45:08;1.40;;;0.50;;
20287;SDS011;10303;51.960;8.372;2022-07-29T07:47:35;0.67;;;0.60;;
20287;SDS011;10303;51.960;8.372;2022-07-29T07:50:04;0.60;;;0.60;;
20287;SDS011;10303;51.960;8.372;2022-07-29T07:52:33;3.67;;;0.77;;
20287;SDS011;10303;51.960;8.372;2022-07-29T07:54:59;0.83;;;0.80;;
20287;SDS011;10303;51.960;8.372;2022-07-29T07:57:26;0.70;;;0.70;;
20287;SDS011;10303;51.960;8.372;2022-07-29T07:59:52;0.60;;;0.60;;
20287;SDS011;10303;51.960;8.372;2022-07-29T08:02:18;0.73;;;0.70;;
20287;SDS011;10303;51.960;8.372;2022-07-29T08:04:44;0.88;;;0.80;;
20287;SDS011;10303;51.960;8.372;2022-07-29T08:07:09;0.70;;;0.70;;
20287;SDS011;10303;51.960;8.372;2022-07-29T08:09:36;1.65;;;0.80;;
20287;SDS011;10303;51.960;8.372;2022-07-29T08:12:02;0.70;;;0.70;;
20287;SDS011;10303;51.960;8.372;2022-07-29T08:14:31;0.95;;;0.70;;
20287;SDS011;10303;51.960;8.372;2022-07-29T08:16:58;1.13;;;0.93;;
20287;SDS011;10303;51.960;8.372;2022-07-29T08:19:24;2.55;;;1.00;;
20287;SDS011;10303;51.960;8.372;2022-07-29T08:21:51;0.73;;;0.60;;
20287;SDS011;10303;51.960;8.372;2022-07-29T08:24:18;0.60;;;0.60;;
20287;SDS011;10303;51.960;8.372;2022-07-29T08:27:03;0.93;;;0.80;;
20287;SDS011;10303;51.960;8.372;2022-07-29T08:29:31;0.60;;;0.60;;
20287;SDS011;10303;51.960;8.372;2022-07-29T08:31:57;1.73;;;0.75;;
20287;SDS011;10303;51.960;8.372;2022-07-29T08:34:23;1.35;;;0.80;;
20287;SDS011;10303;51.960;8.372;2022-07-29T08:36:49;0.75;;;0.63;;
20287;SDS011;10303;51.960;8.372;2022-07-29T08:39:15;0.80;;;0.80;;
20287;SDS011;10303;51.960;8.372;2022-07-29T08:41:46;0.60;;;0.45;;
20287;SDS011;10303;51.960;8.372;2022-07-29T08:44:15;0.82;;;0.73;;
20287;SDS011;10303;51.960;8.372;2022-07-29T08:46:42;1.40;;;0.82;;
20287;SDS011;10303;51.960;8.372;2022-07-29T08:49:09;0.70;;;0.70;;
20287;SDS011;10303;51.960;8.372;2022-07-29T08:51:36;2.60;;;0.90;;
20287;SDS011;10303;51.960;8.372;2022-07-29T08:54:05;0.85;;;0.85;;
20287;SDS011;10303;51.960;8.372;2022-07-29T08:56:33;1.73;;;0.90;;
20287;SDS011;10303;51.960;8.372;2022-07-29T08:59:03;2.40;;;0.60;;
20287;SDS011;10303;51.960;8.372;2022-07-29T09:01:31;2.80;;;0.60;;
20287;SDS011;10303;51.960;8.372;2022-07-29T09:03:59;1.02;;;0.73;;
20287;SDS011;10303;51.960;8.372;2022-07-29T09:06:31;1.55;;;0.60;;
20287;SDS011;10303;51.960;8.372;2022-07-29T09:09:01;0.98;;;0.70;;
20287;SDS011;10303;51.960;8.372;2022-07-29T09:11:29;0.57;;;0.55;;
20287;SDS011;10303;51.960;8.372;2022-07-29T09:13:57;2.22;;;0.80;;
20287;SDS011;10303;51.960;8.372;2022-07-29T09:16:23;0.73;;;0.73;;
20287;SDS011;10303;51.960;8.372;2022-07-29T09:18:49;1.27;;;0.85;;
20287;SDS011;10303;51.960;8.372;2022-07-29T09:21:16;2.08;;;0.70;;
20287;SDS011;10303;51.960;8.372;2022-07-29T09:26:40;0.70;;;0.70;;
20287;SDS011;10303;51.960;8.372;2022-07-29T09:29:13;0.93;;;0.80;;
20287;SDS011;10303;51.960;8.372;2022-07-29T09:31:42;3.20;;;1.17;;
20287;SDS011;10303;51.960;8.372;2022-07-29T09:34:12;1.13;;;0.70;;
20287;SDS011;10303;51.960;8.372;2022-07-29T09:39:09;1.00;;;0.90;;
20287;SDS011;10303;51.960;8.372;2022-07-29T09:41:51;1.80;;;1.23;;
20287;SDS011;10303;51.960;8.372;2022-07-29T09:44:20;0.80;;;0.80;;
20287;SDS011;10303;51.960;8.372;2022-07-29T09:46:54;0.93;;;0.70;;
20287;SDS011;10303;51.960;8.372;2022-07-29T09:49:35;4.22;;;0.70;;
20287;SDS011;10303;51.960;8.372;2022-07-29T09:52:16;0.77;;;0.77;;
20287;SDS011;10303;51.960;8.372;2022-07-29T09:54:42;3.53;;;1.05;;
20287;SDS011;10303;51.960;8.372;2022-07-29T09:57:21;1.42;;;1.08;;
20287;SDS011;10303;51.960;8.372;2022-07-29T10:00:04;1.15;;;0.98;;
20287;SDS011;10303;51.960;8.372;2022-07-29T10:02:41;1.33;;;0.90;;
20287;SDS011;10303;51.960;8.372;2022-07-29T10:05:19;1.10;;;1.00;;
20287;SDS011;10303;51.960;8.372;2022-07-29T10:07:54;1.38;;;0.88;;
20287;SDS011;10303;51.960;8.372;2022-07-29T10:10:26;1.00;;;0.90;;
20287;SDS011;10303;51.960;8.372;2022-07-29T10:13:11;1.05;;;0.95;;
20287;SDS011;10303;51.960;8.372;2022-07-29T10:15:40;0.90;;;0.82;;
20287;SDS011;10303;51.960;8.372;2022-07-29T10:18:10;2.08;;;0.80;;
20287;SDS011;10303;51.960;8.372;2022-07-29T10:20:38;1.02;;;1.02;;
20287;SDS011;10303;51.960;8.372;2022-07-29T10:23:05;2.00;;;0.90;;
20287;SDS011;10303;51.960;8.372;2022-07-29T10:25:31;1.92;;;0.70;;
20287;SDS011;10303;51.960;8.372;2022-07-29T10:27:57;1.00;;;0.90;;
20287;SDS011;10303;51.960;8.372;2022-07-29T10:30:24;0.95;;;0.68;;
20287;SDS011;10303;51.960;8.372;2022-07-29T10:44:18;1.00;;;0.90;;
20287;SDS011;10303;51.960;8.372;2022-07-29T10:46:51;1.10;;;0.75;;
20287;SDS011;10303;51.960;8.372;2022-07-29T10:49:19;0.80;;;0.80;;
20287;SDS011;10303;51.960;8.372;2022-07-29T10:51:53;2.10;;;1.65;;
20287;SDS011;10303;51.960;8.372;2022-07-29T10:54:47;1.02;;;0.80;;
20287;SDS011;10303;51.960;8.372;2022-07-29T11:05:08;1.00;;;0.93;;
20287;SDS011;10303;51.960;8.372;2022-07-29T11:08:01;3.05;;;1.70;;
20287;SDS011;10303;51.960;8.372;2022-07-29T11:10:45;1.02;;;0.90;;
20287;SDS011;10303;51.960;8.372;2022-07-29T11:13:12;1.02;;;0.93;;
20287;SDS011;10303;51.960;8.372;2022-07-29T11:15:56;1.45;;;1.25;;
20287;SDS011;10303;51.960;8.372;2022-07-29T11:18:23;0.80;;;0.80;;
20287;SDS011;10303;51.960;8.372;2022-07-29T11:20:50;1.13;;;0.93;;
20287;SDS011;10303;51.960;8.372;2022-07-29T11:23:24;1.77;;;1.10;;
20287;SDS011;10303;51.960;8.372;2022-07-29T11:31:33;0.80;;;0.80;;
20287;SDS011;10303;51.960;8.372;2022-07-29T11:34:15;1.40;;;1.20;;
20287;SDS011;10303;51.960;8.372;2022-07-29T11:47:48;1.20;;;0.98;;
20287;SDS011;10303;51.960;8.372;2022-07-29T11:50:30;1.20;;;1.08;;
20287;SDS011;10303;51.960;8.372;2022-07-29T11:53:11;2.47;;;1.10;;
20287;SDS011;10303;51.960;8.372;2022-07-29T11:55:39;1.65;;;1.30;;
20287;SDS011;10303;51.960;8.372;2022-07-29T11:58:06;4.72;;;1.17;;
20287;SDS011;10303;51.960;8.372;2022-07-29T12:00:36;2.63;;;1.00;;
20287;SDS011;10303;51.960;8.372;2022-07-29T12:03:06;1.05;;;1.00;;
20287;SDS011;10303;51.960;8.372;2022-07-29T12:05:36;2.28;;;1.55;;
20287;SDS011;10303;51.960;8.372;2022-07-29T12:08:10;1.42;;;1.17;;
20287;SDS011;10303;51.960;8.372;2022-07-29T12:10:41;2.40;;;0.98;;
20287;SDS011;10303;51.960;8.372;2022-07-29T12:13:09;4.30;;;1.15;;
20287;SDS011;10303;51.960;8.372;2022-07-29T12:15:36;1.60;;;1.13;;
20287;SDS011;10303;51.960;8.372;2022-07-29T12:18:09;1.60;;;1.10;;
20287;SDS011;10303;51.960;8.372;2022-07-29T12:20:41;0.80;;;0.80;;
20287;SDS011;10303;51.960;8.372;2022-07-29T12:23:08;6.05;;;1.30;;
20287;SDS011;10303;51.960;8.372;2022-07-29T12:25:37;2.17;;;1.10;;
20287;SDS011;10303;51.960;8.372;2022-07-29T12:28:07;1.60;;;1.50;;
20287;SDS011;10303;51.960;8.372;2022-07-29T12:30:41;1.63;;;0.95;;
20287;SDS011;10303;51.960;8.372;2022-07-29T12:35:59;1.60;;;1.23;;
20287;SDS011;10303;51.960;8.372;2022-07-29T12:38:28;1.73;;;1.08;;
20287;SDS011;10303;51.960;8.372;2022-07-29T12:40:56;1.92;;;1.23;;
20287;SDS011;10303;51.960;8.372;2022-07-29T12:43:23;1.25;;;1.08;;
20287;SDS011;10303;51.960;8.372;2022-07-29T12:45:53;1.42;;;1.10;;
20287;SDS011;10303;51.960;8.372;2022-07-29T12:48:41;1.30;;;1.30;;
20287;SDS011;10303;51.960;8.372;2022-07-29T12:51:08;1.40;;;1.10;;
20287;SDS011;10303;51.960;8.372;2022-07-29T12:53:37;1.30;;;1.20;;
20287;SDS011;10303;51.960;8.372;2022-07-29T12:56:04;1.70;;;1.42;;
20287;SDS011;10303;51.960;8.372;2022-07-29T12:58:32;1.35;;;1.25;;
20287;SDS011;10303;51.960;8.372;2022-07-29T13:01:11;1.95;;;1.27;;
20287;SDS011;10303;51.960;8.372;2022-07-29T13:03:45;1.27;;;1.10;;
20287;SDS011;10303;51.960;8.372;2022-07-29T13:09:16;1.98;;;1.45;;
20287;SDS011;10303;51.960;8.372;2022-07-29T13:14:30;1.25;;;1.05;;
20287;SDS011;10303;51.960;8.372;2022-07-29T13:17:03;3.05;;;1.30;;
20287;SDS011;10303;51.960;8.372;2022-07-29T13:19:45;2.75;;;1.30;;
20287;SDS011;10303;51.960;8.372;2022-07-29T13:22:18;1.40;;;1.20;;
20287;SDS011;10303;51.960;8.372;2022-07-29T13:27:24;1.50;;;1.20;;
20287;SDS011;10303;51.960;8.372;2022-07-29T13:29:53;1.20;;;1.10;;
20287;SDS011;10303;51.960;8.372;2022-07-29T13:32:23;1.30;;;1.17;;
20287;SDS011;10303;51.960;8.372;2022-07-29T13:34:50;3.80;;;1.38;;
20287;SDS011;10303;51.960;8.372;2022-07-29T13:37:17;1.52;;;1.30;;
20287;SDS011;10303;51.960;8.372;2022-07-29T13:39:44;1.77;;;1.10;;
20287;SDS011;10303;51.960;8.372;2022-07-29T13:42:12;2.25;;;1.35;;
20287;SDS011;10303;51.960;8.372;2022-07-29T13:44:39;2.05;;;1.00;;
20287;SDS011;10303;51.960;8.372;2022-07-29T13:47:06;3.15;;;1.15;;
20287;SDS011;10303;51.960;8.372;2022-07-29T13:49:33;1.50;;;1.40;;
20287;SDS011;10303;51.960;8.372;2022-07-29T13:52:00;1.55;;;1.45;;
20287;SDS011;10303;51.960;8.372;2022-07-29T13:54:27;4.43;;;1.20;;
20287;SDS011;10303;51.960;8.372;2022-07-29T13:56:53;1.55;;;1.45;;
20287;SDS011;10303;51.960;8.372;2022-07-29T13:59:19;2.63;;;1.20;;
20287;SDS011;10303;51.960;8.372;2022-07-29T14:01:45;1.42;;;1.33;;
20287;SDS011;10303;51.960;8.372;2022-07-29T14:04:11;2.38;;;1.40;;
20287;SDS011;10303;51.960;8.372;2022-07-29T14:06:38;1.33;;;1.17;;
20287;SDS011;10303;51.960;8.372;2022-07-29T14:09:05;2.22;;;1.40;;
20287;SDS011;10303;51.960;8.372;2022-07-29T14:11:34;1.67;;;1.58;;
20287;SDS011;10303;51.960;8.372;2022-07-29T14:14:00;3.35;;;1.50;;
20287;SDS011;10303;51.960;8.372;2022-07-29T14:16:27;3.83;;;1.17;;
20287;SDS011;10303;51.960;8.372;2022-07-29T14:18:53;4.30;;;1.30;;
20287;SDS011;10303;51.960;8.372;2022-07-29T14:21:18;1.42;;;1.33;;
20287;SDS011;10303;51.960;8.372;2022-07-29T14:23:44;2.28;;;1.27;;
20287;SDS011;10303;51.960;8.372;2022-07-29T14:26:10;1.75;;;1.45;;
20287;SDS011;10303;51.960;8.372;2022-07-29T14:28:36;1.83;;;1.73;;
20287;SDS011;10303;51.960;8.372;2022-07-29T14:31:02;2.38;;;2.05;;
20287;SDS011;10303;51.960;8.372;2022-07-29T14:33:28;1.50;;;1.40;;
20287;SDS011;10303;51.960;8.372;2022-07-29T14:35:54;2.17;;;1.73;;
20287;SDS011;10303;51.960;8.372;2022-07-29T14:38:20;2.10;;;2.00;;
20287;SDS011;10303;51.960;8.372;2022-07-29T14:40:46;1.90;;;1.80;;
20287;SDS011;10303;51.960;8.372;2022-07-29T14:43:12;3.10;;;1.65;;
20287;SDS011;10303;51.960;8.372;2022-07-29T14:45:39;1.90;;;1.40;;
20287;SDS011;10303;51.960;8.372;2022-07-29T14:48:05;3.22;;;1.50;;
20287;SDS011;10303;51.960;8.372;2022-07-29T14:50:32;3.53;;;1.60;;
20287;SDS011;10303;51.960;8.372;2022-07-29T14:52:59;3.10;;;1.98;;
20287;SDS011;10303;51.960;8.372;2022-07-29T14:55:26;2.17;;;1.63;;
20287;SDS011;10303;51.960;8.372;2022-07-29T14:57:52;1.90;;;1.80;;
20287;SDS011;10303;51.960;8.372;2022-07-29T15:00:19;1.90;;;1.70;;
20287;SDS011;10303;51.960;8.372;2022-07-29T15:02:45;3.33;;;1.70;;
20287;SDS011;10303;51.960;8.372;2022-07-29T15:05:12;1.77;;;1.65;;
20287;SDS011;10303;51.960;8.372;2022-07-29T15:07:38;5.72;;;1.88;;
20287;SDS011;10303;51.960;8.372;2022-07-29T15:10:05;4.28;;;1.92;;
20287;SDS011;10303;51.960;8.372;2022-07-29T15:12:31;2.72;;;1.77;;
20287;SDS011;10303;51.960;8.372;2022-07-29T15:14:57;2.15;;;1.52;;
20287;SDS011;10303;51.960;8.372;2022-07-29T15:17:23;2.15;;;1.95;;
20287;SDS011;10303;51.960;8.372;2022-07-29T15:19:50;2.95;;;1.75;;
20287;SDS011;10303;51.960;8.372;2022-07-29T15:22:16;2.55;;;1.88;;
20287;SDS011;10303;51.960;8.372;2022-07-29T15:24:42;4.43;;;1.52;;
20287;SDS011;10303;51.960;8.372;2022-07-29T15:27:09;3.35;;;1.90;;
20287;SDS011;10303;51.960;8.372;2022-07-29T15:29:42;1.40;;;1.30;;
20287;SDS011;10303;51.960;8.372;2022-07-29T15:32:08;7.10;;;1.83;;
20287;SDS011;10303;51.960;8.372;2022-07-29T15:34:37;3.30;;;1.77;;
20287;SDS011;10303;51.960;8.372;2022-07-29T15:37:03;8.32;;;1.58;;
20287;SDS011;10303;51.960;8.372;2022-07-29T15:39:30;2.78;;;1.90;;
20287;SDS011;10303;51.960;8.372;2022-07-29T15:41:56;3.22;;;1.60;;
20287;SDS011;10303;51.960;8.372;2022-07-29T15:44:24;2.10;;;1.20;;
20287;SDS011;10303;51.960;8.372;2022-07-29T15:46:50;5.03;;;1.50;;
20287;SDS011;10303;51.960;8.372;2022-07-29T15:49:30;2.75;;;1.50;;
20287;SDS011;10303;51.960;8.372;2022-07-29T15:52:04;3.40;;;1.30;;
20287;SDS011;10303;51.960;8.372;2022-07-29T15:54:33;4.10;;;1.55;;
20287;SDS011;10303;51.960;8.372;2022-07-29T15:57:01;4.80;;;1.73;;
20287;SDS011;10303;51.960;8.372;2022-07-29T15:59:29;3.17;;;1.63;;
20287;SDS011;10303;51.960;8.372;2022-07-29T16:01:55;1.95;;;1.85;;
20287;SDS011;10303;51.960;8.372;2022-07-29T16:04:21;1.45;;;1.20;;
20287;SDS011;10303;51.960;8.372;2022-07-29T16:06:48;3.35;;;1.45;;